Copeland, Idaho
Current Conditions -  °F | °C
As of 11:55 PM on Wednesday 22 Oct 2014 (Local Time) from K65S Reporting Station
Haze Haze  
Wind Chill: 48°   Ceiling: 3200
Heat Index: 48°   Visibility: 5mi
Dew Point: 46°   Wind: 0mph
Humidity: 93%   Direction: NA
Pressure: 29.77"   Gusts: NA
Location:  48.8159°N, 116.65°W
Report Text: K65S 230655Z AUTO 00000KT 5SM BR SCT015 BKN032 OVC037 09/08 A2977 RMK AO2 P0005
Loading
Personal Weather Stations






























Interactive Weather Map
Tropical Storm Tracking
New forecast layout! Learn more

10-Day Weather Forecast

Advertisements
Track Severe Weather on mobile